sensor_id;sensor_type;location;lat;lon;timestamp;P1;durP1;ratioP1;P2;durP2;ratioP2
60478;SDS011;46321;48.398;11.754;2023-02-13T00:00:53;31.05;;;10.40;;
60478;SDS011;46321;48.398;11.754;2023-02-13T00:03:19;43.25;;;13.15;;
60478;SDS011;46321;48.398;11.754;2023-02-13T00:05:44;28.42;;;10.10;;
60478;SDS011;46321;48.398;11.754;2023-02-13T00:08:09;35.80;;;11.75;;
60478;SDS011;46321;48.398;11.754;2023-02-13T00:10:35;29.45;;;11.75;;
60478;SDS011;46321;48.398;11.754;2023-02-13T00:13:00;31.80;;;11.63;;
60478;SDS011;46321;48.398;11.754;2023-02-13T00:15:26;52.22;;;12.90;;
60478;SDS011;46321;48.398;11.754;2023-02-13T00:17:51;39.60;;;11.18;;
60478;SDS011;46321;48.398;11.754;2023-02-13T00:20:16;29.77;;;11.95;;
60478;SDS011;46321;48.398;11.754;2023-02-13T00:22:42;36.85;;;10.90;;
60478;SDS011;46321;48.398;11.754;2023-02-13T00:25:07;30.73;;;11.32;;
60478;SDS011;46321;48.398;11.754;2023-02-13T00:27:33;31.95;;;10.70;;
60478;SDS011;46321;48.398;11.754;2023-02-13T00:29:58;24.45;;;10.02;;
60478;SDS011;46321;48.398;11.754;2023-02-13T00:32:23;36.25;;;10.48;;
60478;SDS011;46321;48.398;11.754;2023-02-13T00:34:48;28.90;;;10.50;;
60478;SDS011;46321;48.398;11.754;2023-02-13T00:37:14;28.85;;;10.63;;
60478;SDS011;46321;48.398;11.754;2023-02-13T00:39:40;30.20;;;10.50;;
60478;SDS011;46321;48.398;11.754;2023-02-13T00:42:05;26.65;;;10.48;;
60478;SDS011;46321;48.398;11.754;2023-02-13T00:44:31;41.80;;;12.35;;
60478;SDS011;46321;48.398;11.754;2023-02-13T00:46:56;30.05;;;10.27;;
60478;SDS011;46321;48.398;11.754;2023-02-13T00:49:21;38.60;;;12.02;;
60478;SDS011;46321;48.398;11.754;2023-02-13T00:51:47;30.98;;;10.52;;
60478;SDS011;46321;48.398;11.754;2023-02-13T00:54:12;38.05;;;11.77;;
60478;SDS011;46321;48.398;11.754;2023-02-13T00:56:37;27.80;;;11.50;;
60478;SDS011;46321;48.398;11.754;2023-02-13T00:59:03;39.13;;;12.32;;
60478;SDS011;46321;48.398;11.754;2023-02-13T01:01:28;27.88;;;11.82;;
60478;SDS011;46321;48.398;11.754;2023-02-13T01:03:53;29.45;;;10.90;;
60478;SDS011;46321;48.398;11.754;2023-02-13T01:06:18;57.60;;;12.48;;
60478;SDS011;46321;48.398;11.754;2023-02-13T01:08:44;40.90;;;12.07;;
60478;SDS011;46321;48.398;11.754;2023-02-13T01:11:09;32.42;;;11.68;;
60478;SDS011;46321;48.398;11.754;2023-02-13T01:13:34;27.00;;;9.85;;
60478;SDS011;46321;48.398;11.754;2023-02-13T01:16:00;29.00;;;11.43;;
60478;SDS011;46321;48.398;11.754;2023-02-13T01:18:25;28.63;;;9.20;;
60478;SDS011;46321;48.398;11.754;2023-02-13T01:20:55;28.05;;;10.48;;
60478;SDS011;46321;48.398;11.754;2023-02-13T01:23:22;26.15;;;9.40;;
60478;SDS011;46321;48.398;11.754;2023-02-13T01:25:48;28.13;;;10.10;;
60478;SDS011;46321;48.398;11.754;2023-02-13T01:28:15;25.60;;;9.23;;
60478;SDS011;46321;48.398;11.754;2023-02-13T01:30:41;23.58;;;9.50;;
60478;SDS011;46321;48.398;11.754;2023-02-13T01:33:06;25.58;;;9.60;;
60478;SDS011;46321;48.398;11.754;2023-02-13T01:35:31;23.65;;;9.75;;
60478;SDS011;46321;48.398;11.754;2023-02-13T01:37:56;25.23;;;9.63;;
60478;SDS011;46321;48.398;11.754;2023-02-13T01:40:22;21.80;;;8.98;;
60478;SDS011;46321;48.398;11.754;2023-02-13T01:42:47;26.33;;;9.93;;
60478;SDS011;46321;48.398;11.754;2023-02-13T01:47:48;22.35;;;9.65;;
60478;SDS011;46321;48.398;11.754;2023-02-13T01:50:43;19.95;;;7.88;;
60478;SDS011;46321;48.398;11.754;2023-02-13T01:53:24;24.33;;;8.88;;
60478;SDS011;46321;48.398;11.754;2023-02-13T01:55:55;21.75;;;8.85;;
60478;SDS011;46321;48.398;11.754;2023-02-13T01:58:25;30.85;;;9.48;;
60478;SDS011;46321;48.398;11.754;2023-02-13T02:00:54;24.10;;;8.38;;
60478;SDS011;46321;48.398;11.754;2023-02-13T02:03:26;23.33;;;8.63;;
60478;SDS011;46321;48.398;11.754;2023-02-13T02:05:57;20.38;;;9.02;;
60478;SDS011;46321;48.398;11.754;2023-02-13T02:08:24;20.25;;;8.63;;
60478;SDS011;46321;48.398;11.754;2023-02-13T02:10:50;23.27;;;9.88;;
60478;SDS011;46321;48.398;11.754;2023-02-13T02:13:17;28.35;;;9.00;;
60478;SDS011;46321;48.398;11.754;2023-02-13T02:15:44;23.90;;;9.13;;
60478;SDS011;46321;48.398;11.754;2023-02-13T02:18:18;33.28;;;10.25;;
60478;SDS011;46321;48.398;11.754;2023-02-13T02:26:42;21.45;;;8.85;;
60478;SDS011;46321;48.398;11.754;2023-02-13T02:29:27;20.45;;;9.27;;
60478;SDS011;46321;48.398;11.754;2023-02-13T02:32:14;23.45;;;9.32;;
60478;SDS011;46321;48.398;11.754;2023-02-13T02:40:46;22.30;;;8.90;;
60478;SDS011;46321;48.398;11.754;2023-02-13T02:46:15;21.98;;;9.40;;
60478;SDS011;46321;48.398;11.754;2023-02-13T02:54:23;21.00;;;9.15;;
60478;SDS011;46321;48.398;11.754;2023-02-13T02:57:22;25.98;;;9.65;;
60478;SDS011;46321;48.398;11.754;2023-02-13T03:00:11;21.75;;;8.60;;
60478;SDS011;46321;48.398;11.754;2023-02-13T03:02:57;19.08;;;8.40;;
60478;SDS011;46321;48.398;11.754;2023-02-13T03:05:41;23.33;;;8.93;;
60478;SDS011;46321;48.398;11.754;2023-02-13T03:08:28;29.35;;;9.52;;
60478;SDS011;46321;48.398;11.754;2023-02-13T03:11:12;25.38;;;8.52;;
60478;SDS011;46321;48.398;11.754;2023-02-13T03:13:56;23.45;;;8.70;;
60478;SDS011;46321;48.398;11.754;2023-02-13T03:16:24;20.15;;;8.48;;
60478;SDS011;46321;48.398;11.754;2023-02-13T03:19:12;20.88;;;8.50;;
60478;SDS011;46321;48.398;11.754;2023-02-13T03:22:07;23.75;;;8.80;;
60478;SDS011;46321;48.398;11.754;2023-02-13T03:24:59;18.67;;;8.38;;
60478;SDS011;46321;48.398;11.754;2023-02-13T03:36:18;19.52;;;8.80;;
60478;SDS011;46321;48.398;11.754;2023-02-13T03:39:08;19.55;;;8.38;;
60478;SDS011;46321;48.398;11.754;2023-02-13T03:41:40;34.30;;;9.85;;
60478;SDS011;46321;48.398;11.754;2023-02-13T03:46:48;24.25;;;9.80;;
60478;SDS011;46321;48.398;11.754;2023-02-13T03:49:19;30.85;;;10.32;;
60478;SDS011;46321;48.398;11.754;2023-02-13T03:52:10;29.63;;;9.98;;
60478;SDS011;46321;48.398;11.754;2023-02-13T03:54:43;30.38;;;9.77;;
60478;SDS011;46321;48.398;11.754;2023-02-13T03:57:32;36.60;;;10.07;;
60478;SDS011;46321;48.398;11.754;2023-02-13T04:00:19;22.55;;;9.25;;
60478;SDS011;46321;48.398;11.754;2023-02-13T04:05:23;21.45;;;8.80;;
60478;SDS011;46321;48.398;11.754;2023-02-13T04:07:53;25.77;;;8.98;;
60478;SDS011;46321;48.398;11.754;2023-02-13T04:10:18;29.55;;;9.77;;
60478;SDS011;46321;48.398;11.754;2023-02-13T04:13:06;29.98;;;9.02;;
60478;SDS011;46321;48.398;11.754;2023-02-13T04:15:40;23.42;;;9.95;;
60478;SDS011;46321;48.398;11.754;2023-02-13T04:18:14;24.70;;;9.23;;
60478;SDS011;46321;48.398;11.754;2023-02-13T04:20:46;26.05;;;9.20;;
60478;SDS011;46321;48.398;11.754;2023-02-13T04:23:11;41.42;;;10.43;;
60478;SDS011;46321;48.398;11.754;2023-02-13T04:25:38;20.65;;;8.88;;
60478;SDS011;46321;48.398;11.754;2023-02-13T04:28:05;20.17;;;8.63;;
60478;SDS011;46321;48.398;11.754;2023-02-13T04:30:30;28.63;;;9.18;;
60478;SDS011;46321;48.398;11.754;2023-02-13T04:32:56;27.80;;;9.93;;
60478;SDS011;46321;48.398;11.754;2023-02-13T04:35:21;28.02;;;9.38;;
60478;SDS011;46321;48.398;11.754;2023-02-13T04:37:46;23.08;;;9.50;;
60478;SDS011;46321;48.398;11.754;2023-02-13T04:40:12;24.90;;;10.93;;
60478;SDS011;46321;48.398;11.754;2023-02-13T04:42:37;25.67;;;9.20;;
60478;SDS011;46321;48.398;11.754;2023-02-13T04:45:02;41.58;;;9.95;;
60478;SDS011;46321;48.398;11.754;2023-02-13T04:47:28;19.85;;;8.50;;
60478;SDS011;46321;48.398;11.754;2023-02-13T04:49:53;25.80;;;9.15;;
60478;SDS011;46321;48.398;11.754;2023-02-13T04:52:18;23.58;;;8.55;;
60478;SDS011;46321;48.398;11.754;2023-02-13T04:54:44;24.88;;;9.00;;
60478;SDS011;46321;48.398;11.754;2023-02-13T04:57:09;17.95;;;8.02;;
60478;SDS011;46321;48.398;11.754;2023-02-13T04:59:34;24.10;;;8.98;;
60478;SDS011;46321;48.398;11.754;2023-02-13T05:01:59;26.55;;;9.10;;
60478;SDS011;46321;48.398;11.754;2023-02-13T05:04:25;24.63;;;9.38;;
60478;SDS011;46321;48.398;11.754;2023-02-13T05:06:50;17.98;;;7.78;;
60478;SDS011;46321;48.398;11.754;2023-02-13T05:09:16;23.95;;;9.00;;
60478;SDS011;46321;48.398;11.754;2023-02-13T05:11:41;22.67;;;8.77;;
60478;SDS011;46321;48.398;11.754;2023-02-13T05:14:06;27.83;;;8.90;;
60478;SDS011;46321;48.398;11.754;2023-02-13T05:16:33;27.70;;;8.93;;
60478;SDS011;46321;48.398;11.754;2023-02-13T05:18:58;19.52;;;7.97;;
60478;SDS011;46321;48.398;11.754;2023-02-13T05:21:23;23.98;;;8.80;;
60478;SDS011;46321;48.398;11.754;2023-02-13T05:24:07;21.65;;;8.55;;
60478;SDS011;46321;48.398;11.754;2023-02-13T05:26:32;23.08;;;8.63;;
60478;SDS011;46321;48.398;11.754;2023-02-13T05:28:58;27.63;;;9.45;;
60478;SDS011;46321;48.398;11.754;2023-02-13T05:31:41;23.25;;;7.82;;
60478;SDS011;46321;48.398;11.754;2023-02-13T05:34:07;20.90;;;8.30;;
60478;SDS011;46321;48.398;11.754;2023-02-13T05:36:32;22.38;;;8.75;;
60478;SDS011;46321;48.398;11.754;2023-02-13T05:38:57;23.23;;;9.02;;
60478;SDS011;46321;48.398;11.754;2023-02-13T05:41:23;21.70;;;8.50;;
60478;SDS011;46321;48.398;11.754;2023-02-13T05:43:48;19.83;;;8.43;;
60478;SDS011;46321;48.398;11.754;2023-02-13T05:46:13;22.63;;;8.45;;
60478;SDS011;46321;48.398;11.754;2023-02-13T05:48:39;24.08;;;8.88;;
60478;SDS011;46321;48.398;11.754;2023-02-13T05:51:04;21.65;;;8.80;;
60478;SDS011;46321;48.398;11.754;2023-02-13T05:53:30;18.88;;;8.45;;
60478;SDS011;46321;48.398;11.754;2023-02-13T05:55:55;25.70;;;9.27;;
60478;SDS011;46321;48.398;11.754;2023-02-13T05:58:20;29.65;;;10.32;;
60478;SDS011;46321;48.398;11.754;2023-02-13T06:00:46;24.80;;;9.77;;
60478;SDS011;46321;48.398;11.754;2023-02-13T06:03:12;27.42;;;9.68;;
60478;SDS011;46321;48.398;11.754;2023-02-13T06:05:37;23.05;;;9.45;;
60478;SDS011;46321;48.398;11.754;2023-02-13T06:08:02;23.10;;;9.18;;
60478;SDS011;46321;48.398;11.754;2023-02-13T06:10:28;22.00;;;8.75;;
60478;SDS011;46321;48.398;11.754;2023-02-13T06:12:53;22.27;;;9.15;;
60478;SDS011;46321;48.398;11.754;2023-02-13T06:15:19;22.98;;;8.90;;
60478;SDS011;46321;48.398;11.754;2023-02-13T06:17:44;23.85;;;8.80;;
60478;SDS011;46321;48.398;11.754;2023-02-13T06:20:09;28.17;;;10.35;;
60478;SDS011;46321;48.398;11.754;2023-02-13T06:22:35;26.30;;;9.52;;
60478;SDS011;46321;48.398;11.754;2023-02-13T06:25:00;24.58;;;9.13;;
60478;SDS011;46321;48.398;11.754;2023-02-13T06:27:25;29.42;;;10.60;;
60478;SDS011;46321;48.398;11.754;2023-02-13T06:29:50;32.90;;;10.68;;
60478;SDS011;46321;48.398;11.754;2023-02-13T06:32:16;31.58;;;10.63;;
60478;SDS011;46321;48.398;11.754;2023-02-13T06:34:41;26.58;;;10.23;;
60478;SDS011;46321;48.398;11.754;2023-02-13T06:37:07;32.22;;;11.30;;
60478;SDS011;46321;48.398;11.754;2023-02-13T06:39:32;27.88;;;9.82;;
60478;SDS011;46321;48.398;11.754;2023-02-13T06:41:57;32.00;;;10.30;;
60478;SDS011;46321;48.398;11.754;2023-02-13T06:44:22;32.00;;;11.15;;
60478;SDS011;46321;48.398;11.754;2023-02-13T06:46:47;31.52;;;10.60;;
60478;SDS011;46321;48.398;11.754;2023-02-13T06:49:13;31.52;;;11.00;;
60478;SDS011;46321;48.398;11.754;2023-02-13T06:51:38;29.40;;;11.15;;
60478;SDS011;46321;48.398;11.754;2023-02-13T06:54:03;49.75;;;19.60;;
60478;SDS011;46321;48.398;11.754;2023-02-13T06:56:28;27.50;;;11.98;;
60478;SDS011;46321;48.398;11.754;2023-02-13T06:58:54;32.97;;;12.95;;
60478;SDS011;46321;48.398;11.754;2023-02-13T07:01:19;28.80;;;11.10;;
60478;SDS011;46321;48.398;11.754;2023-02-13T07:03:44;29.98;;;10.90;;
60478;SDS011;46321;48.398;11.754;2023-02-13T07:06:15;30.17;;;11.15;;
60478;SDS011;46321;48.398;11.754;2023-02-13T07:08:41;27.80;;;10.43;;
60478;SDS011;46321;48.398;11.754;2023-02-13T07:11:06;30.80;;;11.15;;
60478;SDS011;46321;48.398;11.754;2023-02-13T07:13:32;28.55;;;11.13;;
60478;SDS011;46321;48.398;11.754;2023-02-13T07:15:59;29.25;;;11.05;;
60478;SDS011;46321;48.398;11.754;2023-02-13T07:18:25;32.58;;;11.38;;
60478;SDS011;46321;48.398;11.754;2023-02-13T07:20:50;26.13;;;9.43;;
60478;SDS011;46321;48.398;11.754;2023-02-13T07:23:16;23.77;;;9.73;;
60478;SDS011;46321;48.398;11.754;2023-02-13T07:25:41;22.65;;;8.98;;
60478;SDS011;46321;48.398;11.754;2023-02-13T07:28:06;25.45;;;9.85;;
60478;SDS011;46321;48.398;11.754;2023-02-13T07:30:32;41.20;;;16.77;;
60478;SDS011;46321;48.398;11.754;2023-02-13T07:32:59;44.13;;;18.15;;
60478;SDS011;46321;48.398;11.754;2023-02-13T07:35:25;28.75;;;10.18;;
60478;SDS011;46321;48.398;11.754;2023-02-13T07:37:52;24.60;;;10.07;;
60478;SDS011;46321;48.398;11.754;2023-02-13T07:40:18;28.45;;;11.43;;
60478;SDS011;46321;48.398;11.754;2023-02-13T07:42:43;23.55;;;10.00;;
60478;SDS011;46321;48.398;11.754;2023-02-13T07:45:09;25.63;;;9.18;;
60478;SDS011;46321;48.398;11.754;2023-02-13T07:47:35;22.55;;;8.73;;
60478;SDS011;46321;48.398;11.754;2023-02-13T07:50:01;22.50;;;9.02;;
60478;SDS011;46321;48.398;11.754;2023-02-13T07:52:29;22.55;;;8.27;;
60478;SDS011;46321;48.398;11.754;2023-02-13T07:54:55;25.95;;;8.88;;
60478;SDS011;46321;48.398;11.754;2023-02-13T07:57:20;18.45;;;7.85;;
60478;SDS011;46321;48.398;11.754;2023-02-13T07:59:45;18.73;;;8.38;;
60478;SDS011;46321;48.398;11.754;2023-02-13T08:02:11;18.17;;;8.57;;
60478;SDS011;46321;48.398;11.754;2023-02-13T08:04:38;19.05;;;8.07;;
60478;SDS011;46321;48.398;11.754;2023-02-13T08:07:03;19.98;;;8.50;;
60478;SDS011;46321;48.398;11.754;2023-02-13T08:09:28;21.17;;;8.15;;
60478;SDS011;46321;48.398;11.754;2023-02-13T08:12:12;25.52;;;8.68;;
60478;SDS011;46321;48.398;11.754;2023-02-13T08:14:37;18.38;;;8.25;;
60478;SDS011;46321;48.398;11.754;2023-02-13T08:17:03;23.92;;;8.45;;
60478;SDS011;46321;48.398;11.754;2023-02-13T08:19:28;22.48;;;8.75;;
60478;SDS011;46321;48.398;11.754;2023-02-13T08:21:53;30.45;;;13.98;;
60478;SDS011;46321;48.398;11.754;2023-02-13T08:24:19;33.30;;;14.27;;
60478;SDS011;46321;48.398;11.754;2023-02-13T08:26:44;22.35;;;9.20;;
60478;SDS011;46321;48.398;11.754;2023-02-13T08:29:09;19.00;;;7.72;;
60478;SDS011;46321;48.398;11.754;2023-02-13T08:31:35;16.65;;;7.45;;
60478;SDS011;46321;48.398;11.754;2023-02-13T08:34:00;17.75;;;7.05;;
60478;SDS011;46321;48.398;11.754;2023-02-13T08:36:26;14.80;;;6.25;;
60478;SDS011;46321;48.398;11.754;2023-02-13T08:38:51;14.38;;;6.93;;
60478;SDS011;46321;48.398;11.754;2023-02-13T08:41:17;17.15;;;6.68;;
60478;SDS011;46321;48.398;11.754;2023-02-13T08:43:43;17.17;;;6.38;;
60478;SDS011;46321;48.398;11.754;2023-02-13T08:46:08;14.70;;;6.43;;
60478;SDS011;46321;48.398;11.754;2023-02-13T08:48:33;14.07;;;6.07;;
60478;SDS011;46321;48.398;11.754;2023-02-13T08:50:59;15.27;;;6.75;;
60478;SDS011;46321;48.398;11.754;2023-02-13T08:53:24;18.77;;;6.97;;
60478;SDS011;46321;48.398;11.754;2023-02-13T08:55:53;13.70;;;6.43;;
60478;SDS011;46321;48.398;11.754;2023-02-13T08:58:19;13.98;;;6.35;;
60478;SDS011;46321;48.398;11.754;2023-02-13T09:00:45;16.67;;;6.85;;
60478;SDS011;46321;48.398;11.754;2023-02-13T09:03:10;16.55;;;7.05;;
60478;SDS011;46321;48.398;11.754;2023-02-13T09:05:36;15.40;;;7.03;;
60478;SDS011;46321;48.398;11.754;2023-02-13T09:08:01;32.70;;;14.18;;
60478;SDS011;46321;48.398;11.754;2023-02-13T09:10:28;25.55;;;10.38;;
60478;SDS011;46321;48.398;11.754;2023-02-13T09:12:54;22.67;;;9.95;;
60478;SDS011;46321;48.398;11.754;2023-02-13T09:15:19;15.60;;;6.75;;
60478;SDS011;46321;48.398;11.754;2023-02-13T09:17:45;15.68;;;7.07;;
60478;SDS011;46321;48.398;11.754;2023-02-13T09:20:12;11.85;;;5.95;;
60478;SDS011;46321;48.398;11.754;2023-02-13T09:22:38;17.00;;;7.18;;
60478;SDS011;46321;48.398;11.754;2023-02-13T09:25:04;14.93;;;6.65;;
60478;SDS011;46321;48.398;11.754;2023-02-13T09:27:29;14.50;;;6.30;;
60478;SDS011;46321;48.398;11.754;2023-02-13T09:29:55;15.05;;;6.65;;
60478;SDS011;46321;48.398;11.754;2023-02-13T09:32:20;14.43;;;6.70;;
60478;SDS011;46321;48.398;11.754;2023-02-13T09:34:45;15.98;;;6.78;;
60478;SDS011;46321;48.398;11.754;2023-02-13T09:37:10;15.60;;;6.75;;
60478;SDS011;46321;48.398;11.754;2023-02-13T09:39:36;16.27;;;7.30;;
60478;SDS011;46321;48.398;11.754;2023-02-13T09:42:01;22.50;;;7.07;;
60478;SDS011;46321;48.398;11.754;2023-02-13T09:44:36;16.20;;;6.47;;
60478;SDS011;46321;48.398;11.754;2023-02-13T09:47:15;14.75;;;6.80;;
60478;SDS011;46321;48.398;11.754;2023-02-13T09:50:30;16.70;;;7.25;;
60478;SDS011;46321;48.398;11.754;2023-02-13T09:52:49;14.70;;;6.88;;
60478;SDS011;46321;48.398;11.754;2023-02-13T10:00:52;16.42;;;7.00;;
60478;SDS011;46321;48.398;11.754;2023-02-13T10:03:28;17.13;;;7.68;;
60478;SDS011;46321;48.398;11.754;2023-02-13T10:06:11;14.35;;;6.82;;
60478;SDS011;46321;48.398;11.754;2023-02-13T10:16:50;20.30;;;8.23;;
60478;SDS011;46321;48.398;11.754;2023-02-13T10:21:54;17.80;;;7.57;;
60478;SDS011;46321;48.398;11.754;2023-02-13T10:24:28;17.45;;;7.15;;
60478;SDS011;46321;48.398;11.754;2023-02-13T10:27:04;16.92;;;7.68;;
60478;SDS011;46321;48.398;11.754;2023-02-13T10:29:44;16.25;;;7.15;;
60478;SDS011;46321;48.398;11.754;2023-02-13T10:35:02;18.65;;;7.30;;
60478;SDS011;46321;48.398;11.754;2023-02-13T10:37:40;18.17;;;7.60;;
60478;SDS011;46321;48.398;11.754;2023-02-13T10:40:08;16.08;;;6.95;;
60478;SDS011;46321;48.398;11.754;2023-02-13T10:50:35;16.83;;;6.82;;
60478;SDS011;46321;48.398;11.754;2023-02-13T11:01:24;17.33;;;7.30;;
60478;SDS011;46321;48.398;11.754;2023-02-13T11:04:29;20.73;;;8.10;;
60478;SDS011;46321;48.398;11.754;2023-02-13T11:06:55;20.20;;;8.43;;
60478;SDS011;46321;48.398;11.754;2023-02-13T11:09:23;20.70;;;8.55;;
60478;SDS011;46321;48.398;11.754;2023-02-13T11:11:49;28.75;;;11.38;;
60478;SDS011;46321;48.398;11.754;2023-02-13T11:14:20;28.77;;;10.93;;
60478;SDS011;46321;48.398;11.754;2023-02-13T11:16:54;22.45;;;9.60;;
60478;SDS011;46321;48.398;11.754;2023-02-13T11:19:35;25.17;;;9.52;;
60478;SDS011;46321;48.398;11.754;2023-02-13T11:22:07;24.85;;;9.93;;
60478;SDS011;46321;48.398;11.754;2023-02-13T11:24:36;23.02;;;10.07;;
60478;SDS011;46321;48.398;11.754;2023-02-13T11:27:07;24.20;;;9.63;;
60478;SDS011;46321;48.398;11.754;2023-02-13T11:29:50;24.35;;;9.43;;
60478;SDS011;46321;48.398;11.754;2023-02-13T11:32:19;21.02;;;9.45;;
60478;SDS011;46321;48.398;11.754;2023-02-13T11:34:47;33.75;;;13.73;;
60478;SDS011;46321;48.398;11.754;2023-02-13T11:37:16;26.42;;;10.93;;
60478;SDS011;46321;48.398;11.754;2023-02-13T11:39:44;22.10;;;9.00;;
60478;SDS011;46321;48.398;11.754;2023-02-13T11:42:12;22.65;;;9.30;;
60478;SDS011;46321;48.398;11.754;2023-02-13T11:44:39;22.17;;;8.85;;
60478;SDS011;46321;48.398;11.754;2023-02-13T11:47:06;20.75;;;9.52;;
60478;SDS011;46321;48.398;11.754;2023-02-13T11:49:32;23.83;;;9.73;;
60478;SDS011;46321;48.398;11.754;2023-02-13T11:52:04;22.60;;;9.65;;
60478;SDS011;46321;48.398;11.754;2023-02-13T11:54:38;23.15;;;8.93;;
60478;SDS011;46321;48.398;11.754;2023-02-13T11:57:22;24.52;;;10.07;;
60478;SDS011;46321;48.398;11.754;2023-02-13T11:59:52;24.40;;;10.05;;
60478;SDS011;46321;48.398;11.754;2023-02-13T12:02:25;21.55;;;9.00;;
60478;SDS011;46321;48.398;11.754;2023-02-13T12:05:14;23.55;;;9.55;;
60478;SDS011;46321;48.398;11.754;2023-02-13T12:08:07;22.83;;;9.65;;
60478;SDS011;46321;48.398;11.754;2023-02-13T12:10:33;22.17;;;8.18;;
60478;SDS011;46321;48.398;11.754;2023-02-13T12:13:20;21.50;;;9.02;;
60478;SDS011;46321;48.398;11.754;2023-02-13T12:15:58;22.17;;;9.00;;
60478;SDS011;46321;48.398;11.754;2023-02-13T12:18:31;21.55;;;8.88;;
60478;SDS011;46321;48.398;11.754;2023-02-13T12:23:45;25.77;;;10.23;;
60478;SDS011;46321;48.398;11.754;2023-02-13T12:32:49;23.20;;;10.10;;
60478;SDS011;46321;48.398;11.754;2023-02-13T12:41:08;16.98;;;8.32;;
60478;SDS011;46321;48.398;11.754;2023-02-13T12:48:54;32.45;;;12.85;;
60478;SDS011;46321;48.398;11.754;2023-02-13T12:51:40;25.20;;;9.98;;
60478;SDS011;46321;48.398;11.754;2023-02-13T12:54:27;26.08;;;9.95;;
60478;SDS011;46321;48.398;11.754;2023-02-13T13:02:56;22.52;;;10.05;;
60478;SDS011;46321;48.398;11.754;2023-02-13T13:06:00;21.40;;;9.95;;
60478;SDS011;46321;48.398;11.754;2023-02-13T13:08:47;24.08;;;9.70;;
60478;SDS011;46321;48.398;11.754;2023-02-13T13:28:22;22.23;;;9.45;;
60478;SDS011;46321;48.398;11.754;2023-02-13T13:30:51;23.13;;;9.82;;
60478;SDS011;46321;48.398;11.754;2023-02-13T13:33:18;24.92;;;10.75;;
60478;SDS011;46321;48.398;11.754;2023-02-13T13:36:00;21.92;;;9.73;;
60478;SDS011;46321;48.398;11.754;2023-02-13T13:38:34;22.95;;;9.93;;
60478;SDS011;46321;48.398;11.754;2023-02-13T13:41:13;24.52;;;10.35;;
60478;SDS011;46321;48.398;11.754;2023-02-13T13:51:38;25.17;;;10.93;;
60478;SDS011;46321;48.398;11.754;2023-02-13T14:07:35;23.40;;;9.90;;
60478;SDS011;46321;48.398;11.754;2023-02-13T14:10:03;26.98;;;11.07;;
60478;SDS011;46321;48.398;11.754;2023-02-13T14:14:55;24.17;;;10.20;;
60478;SDS011;46321;48.398;11.754;2023-02-13T14:23:25;24.02;;;10.20;;
60478;SDS011;46321;48.398;11.754;2023-02-13T14:26:15;21.95;;;9.77;;
60478;SDS011;46321;48.398;11.754;2023-02-13T14:31:21;25.93;;;10.50;;
60478;SDS011;46321;48.398;11.754;2023-02-13T14:36:42;24.52;;;10.93;;
60478;SDS011;46321;48.398;11.754;2023-02-13T14:39:18;22.67;;;9.70;;
60478;SDS011;46321;48.398;11.754;2023-02-13T14:46:48;25.45;;;9.85;;
60478;SDS011;46321;48.398;11.754;2023-02-13T14:51:50;22.48;;;10.10;;
60478;SDS011;46321;48.398;11.754;2023-02-13T14:54:24;25.65;;;10.93;;
60478;SDS011;46321;48.398;11.754;2023-02-13T14:56:56;24.58;;;10.30;;
60478;SDS011;46321;48.398;11.754;2023-02-13T14:59:29;26.38;;;10.32;;
60478;SDS011;46321;48.398;11.754;2023-02-13T15:02:22;28.27;;;10.38;;
60478;SDS011;46321;48.398;11.754;2023-02-13T15:05:09;23.95;;;9.95;;
60478;SDS011;46321;48.398;11.754;2023-02-13T15:07:46;25.17;;;10.57;;
60478;SDS011;46321;48.398;11.754;2023-02-13T15:12:56;27.60;;;10.48;;
60478;SDS011;46321;48.398;11.754;2023-02-13T15:15:28;21.75;;;9.00;;
60478;SDS011;46321;48.398;11.754;2023-02-13T15:18:10;25.77;;;10.03;;
60478;SDS011;46321;48.398;11.754;2023-02-13T15:20:52;26.70;;;10.20;;
60478;SDS011;46321;48.398;11.754;2023-02-13T15:23:22;22.92;;;9.65;;
60478;SDS011;46321;48.398;11.754;2023-02-13T15:26:01;23.80;;;10.20;;
60478;SDS011;46321;48.398;11.754;2023-02-13T15:28:31;22.80;;;9.45;;
60478;SDS011;46321;48.398;11.754;2023-02-13T15:33:26;30.45;;;11.38;;
60478;SDS011;46321;48.398;11.754;2023-02-13T15:35:57;26.15;;;10.45;;
60478;SDS011;46321;48.398;11.754;2023-02-13T15:38:28;25.90;;;10.75;;
60478;SDS011;46321;48.398;11.754;2023-02-13T15:40:57;24.38;;;10.23;;
60478;SDS011;46321;48.398;11.754;2023-02-13T15:43:38;27.92;;;10.55;;
60478;SDS011;46321;48.398;11.754;2023-02-13T15:46:20;26.17;;;10.85;;
60478;SDS011;46321;48.398;11.754;2023-02-13T15:48:45;30.65;;;10.57;;
60478;SDS011;46321;48.398;11.754;2023-02-13T15:51:17;26.08;;;10.98;;
60478;SDS011;46321;48.398;11.754;2023-02-13T15:53:54;28.00;;;10.48;;
60478;SDS011;46321;48.398;11.754;2023-02-13T15:56:24;23.92;;;9.77;;
60478;SDS011;46321;48.398;11.754;2023-02-13T15:58:50;28.00;;;10.73;;
60478;SDS011;46321;48.398;11.754;2023-02-13T16:01:17;24.70;;;10.63;;
60478;SDS011;46321;48.398;11.754;2023-02-13T16:03:47;25.73;;;10.95;;
60478;SDS011;46321;48.398;11.754;2023-02-13T16:06:16;30.67;;;11.52;;
60478;SDS011;46321;48.398;11.754;2023-02-13T16:08:48;27.38;;;11.75;;
60478;SDS011;46321;48.398;11.754;2023-02-13T16:11:22;31.23;;;11.82;;
60478;SDS011;46321;48.398;11.754;2023-02-13T16:16:32;27.25;;;10.73;;
60478;SDS011;46321;48.398;11.754;2023-02-13T16:19:05;27.80;;;10.73;;
60478;SDS011;46321;48.398;11.754;2023-02-13T16:21:30;25.33;;;10.68;;
60478;SDS011;46321;48.398;11.754;2023-02-13T16:24:05;27.38;;;10.45;;
60478;SDS011;46321;48.398;11.754;2023-02-13T16:26:32;27.88;;;11.52;;
60478;SDS011;46321;48.398;11.754;2023-02-13T16:29:00;31.52;;;10.90;;
60478;SDS011;46321;48.398;11.754;2023-02-13T16:31:25;29.73;;;11.27;;
60478;SDS011;46321;48.398;11.754;2023-02-13T16:33:51;34.17;;;12.77;;
60478;SDS011;46321;48.398;11.754;2023-02-13T16:36:18;34.60;;;11.77;;
60478;SDS011;46321;48.398;11.754;2023-02-13T16:38:51;29.00;;;12.13;;
60478;SDS011;46321;48.398;11.754;2023-02-13T16:43:45;27.83;;;11.18;;
60478;SDS011;46321;48.398;11.754;2023-02-13T16:51:28;27.25;;;11.38;;
60478;SDS011;46321;48.398;11.754;2023-02-13T16:54:00;30.00;;;11.90;;
60478;SDS011;46321;48.398;11.754;2023-02-13T16:56:35;28.75;;;10.80;;
60478;SDS011;46321;48.398;11.754;2023-02-13T17:02:12;25.50;;;10.95;;
60478;SDS011;46321;48.398;11.754;2023-02-13T17:04:43;32.15;;;11.75;;
60478;SDS011;46321;48.398;11.754;2023-02-13T17:07:14;33.00;;;11.60;;
60478;SDS011;46321;48.398;11.754;2023-02-13T17:09:41;30.02;;;11.93;;
60478;SDS011;46321;48.398;11.754;2023-02-13T17:12:11;32.17;;;11.50;;
60478;SDS011;46321;48.398;11.754;2023-02-13T17:14:39;31.08;;;12.20;;
60478;SDS011;46321;48.398;11.754;2023-02-13T17:17:08;30.70;;;11.63;;
60478;SDS011;46321;48.398;11.754;2023-02-13T17:19:35;30.40;;;11.55;;
60478;SDS011;46321;48.398;11.754;2023-02-13T17:22:01;29.55;;;12.20;;
60478;SDS011;46321;48.398;11.754;2023-02-13T17:24:27;31.38;;;11.95;;
60478;SDS011;46321;48.398;11.754;2023-02-13T17:26:52;32.95;;;12.07;;
60478;SDS011;46321;48.398;11.754;2023-02-13T17:29:17;30.13;;;12.60;;